ジャカルタ の空港の天気 - METARとTAF

スカルノハッタ国際空港 ( WIII / CGK ) - インドネシア バンテン州、Cengkareng ( ジャカルタ近郊)
飛行場実況気象(Metar)
観測時間09/21 05:30 WIB (09/20 22:30 UTC)
風向・風速西 3m/s
視程4000m
天気現象弱い雨
全天の8割程度の雲 雲底高度 580m
気温26℃
湿度89%
気圧1011hPa
METARWIII 202230Z 28005KT 4000 -RA BKN019 26/24 Q1011 NOSIG
過去の天気等 Google飛行場航空写真 Wunderground天気予報

過去48時間のMETAR

飛行場予報(TAF)
発表時間: 9/21 00:00 WIB (9/20 17:00 UTC)
予報対象時間: 21日1時 WIB ~ 22日7時 WIB
風向・風速南西 3m/s
視程4000m
天気現象煙霧
全天の4割程度の雲 雲底高度 610m
21日10時 WIB ~ 21日12時 WIB に徐々に
風向・風速北北東 5m/s
視程7000m
天気現象運行に影響にある天気現象が終了
TAF WIII 201700Z 2018/2124 23005KT 4000 HZ SCT020
BECMG 2103/2105 03010KT 7000 NSW